sensor_id;sensor_type;location;lat;lon;timestamp;temperature;humidity
18948;DHT22;9607;51.600;7.558;2023-09-19T00:01:33;15.80;99.90
18948;DHT22;9607;51.600;7.558;2023-09-19T00:04:01;15.80;99.90
18948;DHT22;9607;51.600;7.558;2023-09-19T00:06:29;15.70;99.90
18948;DHT22;9607;51.600;7.558;2023-09-19T00:08:57;15.70;99.90
18948;DHT22;9607;51.600;7.558;2023-09-19T00:11:25;15.60;99.90
18948;DHT22;9607;51.600;7.558;2023-09-19T00:13:52;15.60;99.90
18948;DHT22;9607;51.600;7.558;2023-09-19T00:16:20;15.60;99.90
18948;DHT22;9607;51.600;7.558;2023-09-19T00:18:46;15.50;99.90
18948;DHT22;9607;51.600;7.558;2023-09-19T00:21:15;15.50;99.90
18948;DHT22;9607;51.600;7.558;2023-09-19T00:23:42;15.40;99.90
18948;DHT22;9607;51.600;7.558;2023-09-19T00:26:09;15.40;99.90
18948;DHT22;9607;51.600;7.558;2023-09-19T00:28:36;15.30;99.90
18948;DHT22;9607;51.600;7.558;2023-09-19T00:31:03;15.30;99.90
18948;DHT22;9607;51.600;7.558;2023-09-19T00:33:30;15.20;99.90
18948;DHT22;9607;51.600;7.558;2023-09-19T00:35:57;15.20;99.90
18948;DHT22;9607;51.600;7.558;2023-09-19T00:38:26;15.20;99.90
18948;DHT22;9607;51.600;7.558;2023-09-19T00:40:54;15.10;99.90
18948;DHT22;9607;51.600;7.558;2023-09-19T00:43:22;15.10;99.90
18948;DHT22;9607;51.600;7.558;2023-09-19T00:45:52;15.10;99.90
18948;DHT22;9607;51.600;7.558;2023-09-19T00:48:19;15.00;99.90
18948;DHT22;9607;51.600;7.558;2023-09-19T00:50:47;15.00;99.90
18948;DHT22;9607;51.600;7.558;2023-09-19T00:53:17;15.00;99.90
18948;DHT22;9607;51.600;7.558;2023-09-19T00:55:46;14.90;99.90
18948;DHT22;9607;51.600;7.558;2023-09-19T00:58:13;14.90;99.90
18948;DHT22;9607;51.600;7.558;2023-09-19T01:00:41;14.80;99.90
18948;DHT22;9607;51.600;7.558;2023-09-19T01:03:10;14.80;99.90
18948;DHT22;9607;51.600;7.558;2023-09-19T01:05:38;14.80;99.90
18948;DHT22;9607;51.600;7.558;2023-09-19T01:08:06;14.70;99.90
18948;DHT22;9607;51.600;7.558;2023-09-19T01:10:34;14.70;99.90
18948;DHT22;9607;51.600;7.558;2023-09-19T01:13:12;14.70;99.90
18948;DHT22;9607;51.600;7.558;2023-09-19T01:15:51;14.70;99.90
18948;DHT22;9607;51.600;7.558;2023-09-19T01:18:26;14.70;99.90
18948;DHT22;9607;51.600;7.558;2023-09-19T01:21:00;14.60;99.90
18948;DHT22;9607;51.600;7.558;2023-09-19T01:23:43;14.60;99.90
18948;DHT22;9607;51.600;7.558;2023-09-19T01:26:30;14.60;99.90
18948;DHT22;9607;51.600;7.558;2023-09-19T01:29:17;14.60;99.90
18948;DHT22;9607;51.600;7.558;2023-09-19T01:31:51;14.60;99.90
18948;DHT22;9607;51.600;7.558;2023-09-19T01:34:19;14.60;99.90
18948;DHT22;9607;51.600;7.558;2023-09-19T01:36:46;14.60;99.90
18948;DHT22;9607;51.600;7.558;2023-09-19T01:39:13;14.60;99.90
18948;DHT22;9607;51.600;7.558;2023-09-19T01:42:05;14.50;99.90
18948;DHT22;9607;51.600;7.558;2023-09-19T01:44:49;14.50;99.90
18948;DHT22;9607;51.600;7.558;2023-09-19T01:47:23;14.50;99.90
18948;DHT22;9607;51.600;7.558;2023-09-19T01:52:43;14.40;99.90
18948;DHT22;9607;51.600;7.558;2023-09-19T01:55:14;14.40;99.90
18948;DHT22;9607;51.600;7.558;2023-09-19T01:57:49;14.40;99.90
18948;DHT22;9607;51.600;7.558;2023-09-19T02:00:21;14.30;99.90
18948;DHT22;9607;51.600;7.558;2023-09-19T02:02:51;14.30;99.90
18948;DHT22;9607;51.600;7.558;2023-09-19T02:05:25;14.30;99.90
18948;DHT22;9607;51.600;7.558;2023-09-19T02:07:52;14.30;99.90
18948;DHT22;9607;51.600;7.558;2023-09-19T02:10:21;14.20;99.90
18948;DHT22;9607;51.600;7.558;2023-09-19T02:12:49;14.20;99.90
18948;DHT22;9607;51.600;7.558;2023-09-19T02:15:16;14.20;99.90
18948;DHT22;9607;51.600;7.558;2023-09-19T02:17:44;14.10;99.90
18948;DHT22;9607;51.600;7.558;2023-09-19T02:20:13;14.20;99.90
18948;DHT22;9607;51.600;7.558;2023-09-19T02:22:41;14.10;99.90
18948;DHT22;9607;51.600;7.558;2023-09-19T02:25:08;14.10;99.90
18948;DHT22;9607;51.600;7.558;2023-09-19T02:27:35;14.10;99.90
18948;DHT22;9607;51.600;7.558;2023-09-19T02:30:03;14.10;99.90
18948;DHT22;9607;51.600;7.558;2023-09-19T02:32:31;14.10;99.90
18948;DHT22;9607;51.600;7.558;2023-09-19T02:35:01;14.00;99.90
18948;DHT22;9607;51.600;7.558;2023-09-19T02:37:32;14.00;99.90
18948;DHT22;9607;51.600;7.558;2023-09-19T02:40:00;14.10;99.90
18948;DHT22;9607;51.600;7.558;2023-09-19T02:42:28;14.00;99.90
18948;DHT22;9607;51.600;7.558;2023-09-19T02:44:55;14.00;99.90
18948;DHT22;9607;51.600;7.558;2023-09-19T02:47:24;14.00;99.90
18948;DHT22;9607;51.600;7.558;2023-09-19T02:49:52;14.00;99.90
18948;DHT22;9607;51.600;7.558;2023-09-19T02:52:19;13.90;99.90
18948;DHT22;9607;51.600;7.558;2023-09-19T02:54:47;13.90;99.90
18948;DHT22;9607;51.600;7.558;2023-09-19T02:57:14;13.90;99.90
18948;DHT22;9607;51.600;7.558;2023-09-19T02:59:43;13.90;99.90
18948;DHT22;9607;51.600;7.558;2023-09-19T03:02:09;13.90;99.90
18948;DHT22;9607;51.600;7.558;2023-09-19T03:04:37;13.80;99.90
18948;DHT22;9607;51.600;7.558;2023-09-19T03:07:04;13.80;99.90
18948;DHT22;9607;51.600;7.558;2023-09-19T03:09:31;13.80;99.90
18948;DHT22;9607;51.600;7.558;2023-09-19T03:12:02;13.80;99.90
18948;DHT22;9607;51.600;7.558;2023-09-19T03:14:30;13.80;99.90
18948;DHT22;9607;51.600;7.558;2023-09-19T03:17:00;13.80;99.90
18948;DHT22;9607;51.600;7.558;2023-09-19T03:19:30;13.80;99.90
18948;DHT22;9607;51.600;7.558;2023-09-19T03:21:58;13.80;99.90
18948;DHT22;9607;51.600;7.558;2023-09-19T03:24:25;13.90;99.90
18948;DHT22;9607;51.600;7.558;2023-09-19T03:26:52;13.90;99.90
18948;DHT22;9607;51.600;7.558;2023-09-19T03:29:21;13.90;99.90
18948;DHT22;9607;51.600;7.558;2023-09-19T03:31:48;13.90;99.90
18948;DHT22;9607;51.600;7.558;2023-09-19T03:34:15;13.90;99.90
18948;DHT22;9607;51.600;7.558;2023-09-19T03:36:42;13.90;99.90
18948;DHT22;9607;51.600;7.558;2023-09-19T03:39:09;13.90;99.90
18948;DHT22;9607;51.600;7.558;2023-09-19T03:41:36;13.80;99.90
18948;DHT22;9607;51.600;7.558;2023-09-19T03:44:03;13.80;99.90
18948;DHT22;9607;51.600;7.558;2023-09-19T03:46:31;13.80;99.90
18948;DHT22;9607;51.600;7.558;2023-09-19T03:49:00;13.80;99.90
18948;DHT22;9607;51.600;7.558;2023-09-19T03:51:26;13.70;99.90
18948;DHT22;9607;51.600;7.558;2023-09-19T03:53:53;13.70;99.90
18948;DHT22;9607;51.600;7.558;2023-09-19T03:56:19;13.70;99.90
18948;DHT22;9607;51.600;7.558;2023-09-19T03:58:46;13.70;99.90
18948;DHT22;9607;51.600;7.558;2023-09-19T04:01:12;13.70;99.90
18948;DHT22;9607;51.600;7.558;2023-09-19T04:03:41;13.70;99.90
18948;DHT22;9607;51.600;7.558;2023-09-19T04:06:16;13.60;99.90
18948;DHT22;9607;51.600;7.558;2023-09-19T04:08:44;13.60;99.90
18948;DHT22;9607;51.600;7.558;2023-09-19T04:11:11;13.50;99.90
18948;DHT22;9607;51.600;7.558;2023-09-19T04:13:38;13.50;99.90
18948;DHT22;9607;51.600;7.558;2023-09-19T04:16:05;13.50;99.90
18948;DHT22;9607;51.600;7.558;2023-09-19T04:18:32;13.50;99.90
18948;DHT22;9607;51.600;7.558;2023-09-19T04:21:04;13.50;99.90
18948;DHT22;9607;51.600;7.558;2023-09-19T04:23:31;13.40;99.90
18948;DHT22;9607;51.600;7.558;2023-09-19T04:25:58;13.40;99.90
18948;DHT22;9607;51.600;7.558;2023-09-19T04:28:25;13.40;99.90
18948;DHT22;9607;51.600;7.558;2023-09-19T04:30:53;13.30;99.90
18948;DHT22;9607;51.600;7.558;2023-09-19T04:33:20;13.30;99.90
18948;DHT22;9607;51.600;7.558;2023-09-19T04:35:49;13.30;99.90
18948;DHT22;9607;51.600;7.558;2023-09-19T04:38:17;13.30;99.90
18948;DHT22;9607;51.600;7.558;2023-09-19T04:40:44;13.20;99.90
18948;DHT22;9607;51.600;7.558;2023-09-19T04:43:11;13.30;99.90
18948;DHT22;9607;51.600;7.558;2023-09-19T04:45:39;13.30;99.90
18948;DHT22;9607;51.600;7.558;2023-09-19T04:48:06;13.30;99.90
18948;DHT22;9607;51.600;7.558;2023-09-19T04:50:34;13.30;99.90
18948;DHT22;9607;51.600;7.558;2023-09-19T04:53:03;13.30;99.90
18948;DHT22;9607;51.600;7.558;2023-09-19T04:55:31;13.30;99.90
18948;DHT22;9607;51.600;7.558;2023-09-19T04:57:59;13.30;99.90
18948;DHT22;9607;51.600;7.558;2023-09-19T05:00:25;13.30;99.90
18948;DHT22;9607;51.600;7.558;2023-09-19T05:02:56;13.30;99.90
18948;DHT22;9607;51.600;7.558;2023-09-19T05:05:23;13.30;99.90
18948;DHT22;9607;51.600;7.558;2023-09-19T05:07:51;13.30;99.90
18948;DHT22;9607;51.600;7.558;2023-09-19T05:10:19;13.30;99.90
18948;DHT22;9607;51.600;7.558;2023-09-19T05:12:48;13.20;99.90
18948;DHT22;9607;51.600;7.558;2023-09-19T05:15:17;13.30;99.90
18948;DHT22;9607;51.600;7.558;2023-09-19T05:17:48;13.30;99.90
18948;DHT22;9607;51.600;7.558;2023-09-19T05:20:15;13.30;99.90
18948;DHT22;9607;51.600;7.558;2023-09-19T05:22:44;13.30;99.90
18948;DHT22;9607;51.600;7.558;2023-09-19T05:25:12;13.30;99.90
18948;DHT22;9607;51.600;7.558;2023-09-19T05:27:44;13.30;99.90
18948;DHT22;9607;51.600;7.558;2023-09-19T05:30:13;13.30;99.90
18948;DHT22;9607;51.600;7.558;2023-09-19T05:32:41;13.40;99.90
18948;DHT22;9607;51.600;7.558;2023-09-19T05:35:09;13.30;99.90
18948;DHT22;9607;51.600;7.558;2023-09-19T05:37:38;13.30;99.90
18948;DHT22;9607;51.600;7.558;2023-09-19T05:40:06;13.30;99.90
18948;DHT22;9607;51.600;7.558;2023-09-19T05:42:36;13.40;99.90
18948;DHT22;9607;51.600;7.558;2023-09-19T05:45:04;13.40;99.90
18948;DHT22;9607;51.600;7.558;2023-09-19T05:47:33;13.40;99.90
18948;DHT22;9607;51.600;7.558;2023-09-19T05:50:00;13.50;99.90
18948;DHT22;9607;51.600;7.558;2023-09-19T05:52:26;13.50;99.90
18948;DHT22;9607;51.600;7.558;2023-09-19T05:54:53;13.50;99.90
18948;DHT22;9607;51.600;7.558;2023-09-19T05:57:22;13.50;99.90
18948;DHT22;9607;51.600;7.558;2023-09-19T05:59:50;13.60;99.90
18948;DHT22;9607;51.600;7.558;2023-09-19T06:02:17;13.60;99.90
18948;DHT22;9607;51.600;7.558;2023-09-19T06:04:45;13.70;99.90
18948;DHT22;9607;51.600;7.558;2023-09-19T06:07:12;13.70;99.90
18948;DHT22;9607;51.600;7.558;2023-09-19T06:09:40;13.70;99.90
18948;DHT22;9607;51.600;7.558;2023-09-19T06:12:07;13.80;99.90
18948;DHT22;9607;51.600;7.558;2023-09-19T06:14:34;13.90;99.90
18948;DHT22;9607;51.600;7.558;2023-09-19T06:17:01;13.90;99.90
18948;DHT22;9607;51.600;7.558;2023-09-19T06:19:31;14.00;99.90
18948;DHT22;9607;51.600;7.558;2023-09-19T06:21:59;14.10;99.90
18948;DHT22;9607;51.600;7.558;2023-09-19T06:24:26;14.10;99.90
18948;DHT22;9607;51.600;7.558;2023-09-19T06:26:54;14.20;99.90
18948;DHT22;9607;51.600;7.558;2023-09-19T06:29:21;14.30;99.90
18948;DHT22;9607;51.600;7.558;2023-09-19T06:31:48;14.40;99.90
18948;DHT22;9607;51.600;7.558;2023-09-19T06:34:16;14.40;99.90
18948;DHT22;9607;51.600;7.558;2023-09-19T06:36:43;14.50;99.90
18948;DHT22;9607;51.600;7.558;2023-09-19T06:39:12;14.60;99.90
18948;DHT22;9607;51.600;7.558;2023-09-19T06:41:41;14.60;99.90
18948;DHT22;9607;51.600;7.558;2023-09-19T06:44:08;14.70;99.90
18948;DHT22;9607;51.600;7.558;2023-09-19T06:46:35;14.70;99.90
18948;DHT22;9607;51.600;7.558;2023-09-19T06:49:04;14.80;99.90
18948;DHT22;9607;51.600;7.558;2023-09-19T06:51:32;14.80;99.90
18948;DHT22;9607;51.600;7.558;2023-09-19T06:54:00;14.90;99.90
18948;DHT22;9607;51.600;7.558;2023-09-19T06:56:28;15.00;99.90
18948;DHT22;9607;51.600;7.558;2023-09-19T06:58:55;15.00;99.90
18948;DHT22;9607;51.600;7.558;2023-09-19T07:01:22;15.10;99.90
18948;DHT22;9607;51.600;7.558;2023-09-19T07:03:50;15.10;99.90
18948;DHT22;9607;51.600;7.558;2023-09-19T07:06:18;15.10;99.90
18948;DHT22;9607;51.600;7.558;2023-09-19T07:08:45;15.20;99.90
18948;DHT22;9607;51.600;7.558;2023-09-19T07:11:12;15.20;99.90
18948;DHT22;9607;51.600;7.558;2023-09-19T07:13:41;15.20;99.90
18948;DHT22;9607;51.600;7.558;2023-09-19T07:16:08;15.30;99.90
18948;DHT22;9607;51.600;7.558;2023-09-19T07:18:36;15.40;99.90
18948;DHT22;9607;51.600;7.558;2023-09-19T07:21:03;15.40;99.90
18948;DHT22;9607;51.600;7.558;2023-09-19T07:23:31;15.50;99.90
18948;DHT22;9607;51.600;7.558;2023-09-19T07:26:00;15.50;99.90
18948;DHT22;9607;51.600;7.558;2023-09-19T07:28:30;15.50;99.90
18948;DHT22;9607;51.600;7.558;2023-09-19T07:31:01;15.50;99.90
18948;DHT22;9607;51.600;7.558;2023-09-19T07:33:28;15.60;99.90
18948;DHT22;9607;51.600;7.558;2023-09-19T07:35:55;15.60;99.90
18948;DHT22;9607;51.600;7.558;2023-09-19T07:38:22;15.70;99.90
18948;DHT22;9607;51.600;7.558;2023-09-19T07:40:49;15.70;99.90
18948;DHT22;9607;51.600;7.558;2023-09-19T07:43:16;15.80;99.90
18948;DHT22;9607;51.600;7.558;2023-09-19T07:45:44;15.80;99.90
18948;DHT22;9607;51.600;7.558;2023-09-19T07:48:12;15.90;99.90
18948;DHT22;9607;51.600;7.558;2023-09-19T07:50:40;15.90;99.90
18948;DHT22;9607;51.600;7.558;2023-09-19T07:53:08;16.00;99.90
18948;DHT22;9607;51.600;7.558;2023-09-19T07:55:37;16.00;99.90
18948;DHT22;9607;51.600;7.558;2023-09-19T07:58:05;16.10;99.90
18948;DHT22;9607;51.600;7.558;2023-09-19T08:00:32;16.10;99.90
18948;DHT22;9607;51.600;7.558;2023-09-19T08:03:00;16.20;99.90
18948;DHT22;9607;51.600;7.558;2023-09-19T08:05:29;16.20;99.90
18948;DHT22;9607;51.600;7.558;2023-09-19T08:07:56;16.20;99.90
18948;DHT22;9607;51.600;7.558;2023-09-19T08:10:24;16.30;99.90
18948;DHT22;9607;51.600;7.558;2023-09-19T08:12:53;16.40;99.90
18948;DHT22;9607;51.600;7.558;2023-09-19T08:15:24;16.40;99.90
18948;DHT22;9607;51.600;7.558;2023-09-19T08:17:50;16.40;99.90
18948;DHT22;9607;51.600;7.558;2023-09-19T08:20:17;16.40;99.90
18948;DHT22;9607;51.600;7.558;2023-09-19T08:22:47;16.40;99.90
18948;DHT22;9607;51.600;7.558;2023-09-19T08:25:15;16.50;99.90
18948;DHT22;9607;51.600;7.558;2023-09-19T08:27:44;16.60;99.90
18948;DHT22;9607;51.600;7.558;2023-09-19T08:30:14;16.70;99.90
18948;DHT22;9607;51.600;7.558;2023-09-19T08:32:41;16.80;99.90
18948;DHT22;9607;51.600;7.558;2023-09-19T08:35:09;16.80;99.90
18948;DHT22;9607;51.600;7.558;2023-09-19T08:37:36;16.90;99.90
18948;DHT22;9607;51.600;7.558;2023-09-19T08:40:05;17.00;99.90
18948;DHT22;9607;51.600;7.558;2023-09-19T08:42:47;17.10;99.90
18948;DHT22;9607;51.600;7.558;2023-09-19T08:45:15;17.10;99.90
18948;DHT22;9607;51.600;7.558;2023-09-19T08:47:48;17.10;99.90
18948;DHT22;9607;51.600;7.558;2023-09-19T08:50:21;17.10;99.90
18948;DHT22;9607;51.600;7.558;2023-09-19T08:52:51;17.10;99.90
18948;DHT22;9607;51.600;7.558;2023-09-19T08:55:24;17.10;99.90
18948;DHT22;9607;51.600;7.558;2023-09-19T08:57:59;17.10;99.90
18948;DHT22;9607;51.600;7.558;2023-09-19T09:00:28;17.10;99.90
18948;DHT22;9607;51.600;7.558;2023-09-19T09:02:56;17.20;99.90
18948;DHT22;9607;51.600;7.558;2023-09-19T09:05:24;17.20;99.90
18948;DHT22;9607;51.600;7.558;2023-09-19T09:07:52;17.30;99.90
18948;DHT22;9607;51.600;7.558;2023-09-19T09:10:23;17.30;99.90
18948;DHT22;9607;51.600;7.558;2023-09-19T09:12:51;17.40;99.90
18948;DHT22;9607;51.600;7.558;2023-09-19T09:15:19;17.40;99.90
18948;DHT22;9607;51.600;7.558;2023-09-19T09:17:49;17.50;99.90
18948;DHT22;9607;51.600;7.558;2023-09-19T09:20:16;17.50;99.90
18948;DHT22;9607;51.600;7.558;2023-09-19T09:22:54;17.50;99.90
18948;DHT22;9607;51.600;7.558;2023-09-19T09:25:22;17.50;99.90
18948;DHT22;9607;51.600;7.558;2023-09-19T09:27:59;17.50;99.90
18948;DHT22;9607;51.600;7.558;2023-09-19T09:30:36;17.60;99.90
18948;DHT22;9607;51.600;7.558;2023-09-19T09:33:10;17.70;99.90
18948;DHT22;9607;51.600;7.558;2023-09-19T09:35:37;17.90;99.90
18948;DHT22;9607;51.600;7.558;2023-09-19T09:38:18;18.00;99.90
18948;DHT22;9607;51.600;7.558;2023-09-19T09:40:51;18.00;99.90
18948;DHT22;9607;51.600;7.558;2023-09-19T09:43:29;18.00;99.90
18948;DHT22;9607;51.600;7.558;2023-09-19T09:46:07;18.10;99.90
18948;DHT22;9607;51.600;7.558;2023-09-19T09:48:59;18.10;99.90
18948;DHT22;9607;51.600;7.558;2023-09-19T09:51:48;18.20;99.90
18948;DHT22;9607;51.600;7.558;2023-09-19T09:54:23;18.10;99.90
18948;DHT22;9607;51.600;7.558;2023-09-19T09:56:56;18.20;99.90
18948;DHT22;9607;51.600;7.558;2023-09-19T09:59:44;18.20;99.90
18948;DHT22;9607;51.600;7.558;2023-09-19T10:02:13;18.30;99.90
18948;DHT22;9607;51.600;7.558;2023-09-19T10:04:41;18.40;99.90
18948;DHT22;9607;51.600;7.558;2023-09-19T10:07:27;18.50;99.90
18948;DHT22;9607;51.600;7.558;2023-09-19T10:10:01;18.60;99.90
18948;DHT22;9607;51.600;7.558;2023-09-19T10:12:43;18.60;99.90
18948;DHT22;9607;51.600;7.558;2023-09-19T10:15:11;18.60;99.90
18948;DHT22;9607;51.600;7.558;2023-09-19T10:17:43;18.60;99.90
18948;DHT22;9607;51.600;7.558;2023-09-19T10:20:13;18.60;99.90
18948;DHT22;9607;51.600;7.558;2023-09-19T10:23:00;18.70;99.90
18948;DHT22;9607;51.600;7.558;2023-09-19T10:25:27;18.50;99.90
18948;DHT22;9607;51.600;7.558;2023-09-19T10:28:00;18.50;99.90
18948;DHT22;9607;51.600;7.558;2023-09-19T10:30:29;18.60;99.90
18948;DHT22;9607;51.600;7.558;2023-09-19T10:33:03;18.70;99.90
18948;DHT22;9607;51.600;7.558;2023-09-19T10:35:32;18.80;99.90
18948;DHT22;9607;51.600;7.558;2023-09-19T10:38:01;18.90;99.90
18948;DHT22;9607;51.600;7.558;2023-09-19T10:40:28;19.00;99.90
18948;DHT22;9607;51.600;7.558;2023-09-19T10:43:03;19.20;99.90
18948;DHT22;9607;51.600;7.558;2023-09-19T10:45:32;19.20;99.90
18948;DHT22;9607;51.600;7.558;2023-09-19T10:47:59;19.30;99.90
18948;DHT22;9607;51.600;7.558;2023-09-19T10:50:31;19.20;99.90
18948;DHT22;9607;51.600;7.558;2023-09-19T10:53:02;19.10;99.90
18948;DHT22;9607;51.600;7.558;2023-09-19T10:55:32;19.00;99.90
18948;DHT22;9607;51.600;7.558;2023-09-19T10:58:02;18.90;99.90
18948;DHT22;9607;51.600;7.558;2023-09-19T11:00:51;19.00;99.90
18948;DHT22;9607;51.600;7.558;2023-09-19T11:03:20;19.20;99.90
18948;DHT22;9607;51.600;7.558;2023-09-19T11:06:09;19.30;99.90
18948;DHT22;9607;51.600;7.558;2023-09-19T11:08:53;19.40;99.90
18948;DHT22;9607;51.600;7.558;2023-09-19T11:11:45;19.60;99.90
18948;DHT22;9607;51.600;7.558;2023-09-19T11:14:38;19.70;99.90
18948;DHT22;9607;51.600;7.558;2023-09-19T11:20:19;19.80;99.90
18948;DHT22;9607;51.600;7.558;2023-09-19T11:23:22;19.90;99.90
18948;DHT22;9607;51.600;7.558;2023-09-19T11:25:52;19.80;99.90
18948;DHT22;9607;51.600;7.558;2023-09-19T11:28:35;19.80;99.90
18948;DHT22;9607;51.600;7.558;2023-09-19T11:34:47;20.20;99.90
18948;DHT22;9607;51.600;7.558;2023-09-19T11:40:25;20.60;99.90
18948;DHT22;9607;51.600;7.558;2023-09-19T11:42:53;20.80;99.90
18948;DHT22;9607;51.600;7.558;2023-09-19T11:48:27;20.80;99.90
18948;DHT22;9607;51.600;7.558;2023-09-19T11:50:56;21.00;99.90
18948;DHT22;9607;51.600;7.558;2023-09-19T11:53:31;21.00;99.90
18948;DHT22;9607;51.600;7.558;2023-09-19T11:56:01;21.00;99.90
18948;DHT22;9607;51.600;7.558;2023-09-19T11:58:30;20.90;99.90
18948;DHT22;9607;51.600;7.558;2023-09-19T12:00:59;20.70;99.90
18948;DHT22;9607;51.600;7.558;2023-09-19T12:03:31;20.80;99.90
18948;DHT22;9607;51.600;7.558;2023-09-19T12:06:00;20.70;99.90
18948;DHT22;9607;51.600;7.558;2023-09-19T12:08:28;20.90;99.90
18948;DHT22;9607;51.600;7.558;2023-09-19T12:10:55;21.10;99.90
18948;DHT22;9607;51.600;7.558;2023-09-19T12:13:23;21.20;99.90
18948;DHT22;9607;51.600;7.558;2023-09-19T12:15:51;21.50;99.90
18948;DHT22;9607;51.600;7.558;2023-09-19T12:18:28;22.20;99.90
18948;DHT22;9607;51.600;7.558;2023-09-19T12:20:55;22.50;99.50
18948;DHT22;9607;51.600;7.558;2023-09-19T12:23:24;22.30;98.10
18948;DHT22;9607;51.600;7.558;2023-09-19T12:25:52;21.90;97.90
18948;DHT22;9607;51.600;7.558;2023-09-19T12:28:22;21.90;98.30
18948;DHT22;9607;51.600;7.558;2023-09-19T12:30:52;21.80;98.40
18948;DHT22;9607;51.600;7.558;2023-09-19T12:33:21;21.60;98.60
18948;DHT22;9607;51.600;7.558;2023-09-19T12:35:51;21.40;98.10
18948;DHT22;9607;51.600;7.558;2023-09-19T12:38:26;21.20;98.80
18948;DHT22;9607;51.600;7.558;2023-09-19T12:40:55;21.00;99.90
18948;DHT22;9607;51.600;7.558;2023-09-19T12:43:25;20.90;99.40
18948;DHT22;9607;51.600;7.558;2023-09-19T12:45:52;20.80;99.90
18948;DHT22;9607;51.600;7.558;2023-09-19T12:48:23;20.80;99.90
18948;DHT22;9607;51.600;7.558;2023-09-19T12:51:01;20.70;99.90
18948;DHT22;9607;51.600;7.558;2023-09-19T12:53:33;20.60;99.90
18948;DHT22;9607;51.600;7.558;2023-09-19T12:56:03;20.70;99.90
18948;DHT22;9607;51.600;7.558;2023-09-19T12:58:32;20.70;99.90
18948;DHT22;9607;51.600;7.558;2023-09-19T13:01:00;20.60;99.90
18948;DHT22;9607;51.600;7.558;2023-09-19T13:03:28;20.60;99.90
18948;DHT22;9607;51.600;7.558;2023-09-19T13:05:59;20.50;99.60
18948;DHT22;9607;51.600;7.558;2023-09-19T13:08:29;20.50;98.90
18948;DHT22;9607;51.600;7.558;2023-09-19T13:11:06;20.50;99.30
18948;DHT22;9607;51.600;7.558;2023-09-19T13:13:36;20.50;99.40
18948;DHT22;9607;51.600;7.558;2023-09-19T13:16:03;20.50;98.10
18948;DHT22;9607;51.600;7.558;2023-09-19T13:18:42;20.50;97.70
18948;DHT22;9607;51.600;7.558;2023-09-19T13:21:11;20.60;97.30
18948;DHT22;9607;51.600;7.558;2023-09-19T13:23:41;20.70;97.50
18948;DHT22;9607;51.600;7.558;2023-09-19T13:26:10;20.70;96.60
18948;DHT22;9607;51.600;7.558;2023-09-19T13:28:38;20.80;97.10
18948;DHT22;9607;51.600;7.558;2023-09-19T13:31:05;20.90;97.50
18948;DHT22;9607;51.600;7.558;2023-09-19T13:33:33;21.00;97.70
18948;DHT22;9607;51.600;7.558;2023-09-19T13:36:01;21.20;96.40
18948;DHT22;9607;51.600;7.558;2023-09-19T13:38:28;21.30;97.00
18948;DHT22;9607;51.600;7.558;2023-09-19T13:40:55;21.20;95.10
18948;DHT22;9607;51.600;7.558;2023-09-19T13:43:23;21.00;95.60
18948;DHT22;9607;51.600;7.558;2023-09-19T13:45:50;21.00;95.50
18948;DHT22;9607;51.600;7.558;2023-09-19T13:48:17;20.90;95.00
18948;DHT22;9607;51.600;7.558;2023-09-19T13:50:47;20.90;95.40
18948;DHT22;9607;51.600;7.558;2023-09-19T13:53:15;20.80;96.10
18948;DHT22;9607;51.600;7.558;2023-09-19T13:55:42;20.90;95.60
18948;DHT22;9607;51.600;7.558;2023-09-19T13:58:09;20.90;94.90
18948;DHT22;9607;51.600;7.558;2023-09-19T14:00:39;20.90;95.50
18948;DHT22;9607;51.600;7.558;2023-09-19T14:03:06;20.90;95.40
18948;DHT22;9607;51.600;7.558;2023-09-19T14:05:33;20.90;95.00
18948;DHT22;9607;51.600;7.558;2023-09-19T14:07:59;20.90;94.90
18948;DHT22;9607;51.600;7.558;2023-09-19T14:10:28;21.10;95.60
18948;DHT22;9607;51.600;7.558;2023-09-19T14:12:57;21.30;95.50
18948;DHT22;9607;51.600;7.558;2023-09-19T14:15:25;21.50;95.60
18948;DHT22;9607;51.600;7.558;2023-09-19T14:17:56;21.60;94.70
18948;DHT22;9607;51.600;7.558;2023-09-19T14:20:25;21.60;94.40
18948;DHT22;9607;51.600;7.558;2023-09-19T14:22:53;21.60;94.70
18948;DHT22;9607;51.600;7.558;2023-09-19T14:25:20;21.50;94.40
18948;DHT22;9607;51.600;7.558;2023-09-19T14:27:47;21.50;94.20
18948;DHT22;9607;51.600;7.558;2023-09-19T14:30:15;21.40;94.30
18948;DHT22;9607;51.600;7.558;2023-09-19T14:32:41;21.30;94.70
18948;DHT22;9607;51.600;7.558;2023-09-19T14:35:10;21.20;94.90
18948;DHT22;9607;51.600;7.558;2023-09-19T14:37:46;21.20;95.20
18948;DHT22;9607;51.600;7.558;2023-09-19T14:40:19;21.20;95.30
18948;DHT22;9607;51.600;7.558;2023-09-19T14:42:49;21.20;95.80
18948;DHT22;9607;51.600;7.558;2023-09-19T14:45:16;21.20;95.60
18948;DHT22;9607;51.600;7.558;2023-09-19T14:47:45;21.20;95.80
18948;DHT22;9607;51.600;7.558;2023-09-19T14:50:13;21.10;95.50
18948;DHT22;9607;51.600;7.558;2023-09-19T14:52:41;21.10;96.10
18948;DHT22;9607;51.600;7.558;2023-09-19T14:55:08;21.00;96.00
18948;DHT22;9607;51.600;7.558;2023-09-19T14:57:41;21.00;96.10
18948;DHT22;9607;51.600;7.558;2023-09-19T15:00:11;20.90;96.60
18948;DHT22;9607;51.600;7.558;2023-09-19T15:02:38;20.90;96.40
18948;DHT22;9607;51.600;7.558;2023-09-19T15:05:06;20.80;96.90
18948;DHT22;9607;51.600;7.558;2023-09-19T15:07:35;20.80;97.50
18948;DHT22;9607;51.600;7.558;2023-09-19T15:10:04;20.80;97.10
18948;DHT22;9607;51.600;7.558;2023-09-19T15:12:32;20.70;97.50
18948;DHT22;9607;51.600;7.558;2023-09-19T15:15:01;20.70;97.80
18948;DHT22;9607;51.600;7.558;2023-09-19T15:17:30;20.80;98.30
18948;DHT22;9607;51.600;7.558;2023-09-19T15:19:57;20.70;98.30
18948;DHT22;9607;51.600;7.558;2023-09-19T15:22:24;20.80;98.70
18948;DHT22;9607;51.600;7.558;2023-09-19T15:24:53;20.70;98.10
18948;DHT22;9607;51.600;7.558;2023-09-19T15:27:20;20.70;98.30
18948;DHT22;9607;51.600;7.558;2023-09-19T15:29:47;20.80;98.40
18948;DHT22;9607;51.600;7.558;2023-09-19T15:32:14;20.90;98.30
18948;DHT22;9607;51.600;7.558;2023-09-19T15:34:41;20.90;98.70
18948;DHT22;9607;51.600;7.558;2023-09-19T15:37:08;21.00;98.80
18948;DHT22;9607;51.600;7.558;2023-09-19T15:39:34;21.10;99.00
18948;DHT22;9607;51.600;7.558;2023-09-19T15:42:04;21.10;98.40
18948;DHT22;9607;51.600;7.558;2023-09-19T15:44:31;21.10;98.20
18948;DHT22;9607;51.600;7.558;2023-09-19T15:46:58;21.10;98.40
18948;DHT22;9607;51.600;7.558;2023-09-19T15:49:25;21.10;98.30
18948;DHT22;9607;51.600;7.558;2023-09-19T15:51:52;21.00;98.50
18948;DHT22;9607;51.600;7.558;2023-09-19T15:54:19;20.90;98.30
18948;DHT22;9607;51.600;7.558;2023-09-19T15:56:46;20.90;98.60
18948;DHT22;9607;51.600;7.558;2023-09-19T15:59:15;20.90;99.40
18948;DHT22;9607;51.600;7.558;2023-09-19T16:01:43;20.90;98.90
18948;DHT22;9607;51.600;7.558;2023-09-19T16:04:11;21.20;98.70
18948;DHT22;9607;51.600;7.558;2023-09-19T16:06:39;21.70;98.00
18948;DHT22;9607;51.600;7.558;2023-09-19T16:09:06;22.40;97.90
18948;DHT22;9607;51.600;7.558;2023-09-19T16:11:34;23.40;96.80
18948;DHT22;9607;51.600;7.558;2023-09-19T16:14:02;24.60;93.10
18948;DHT22;9607;51.600;7.558;2023-09-19T16:16:31;25.10;90.10